sensor_id;sensor_type;location;lat;lon;timestamp;pressure;altitude;pressure_sealevel;temperature;humidity
47374;BME280;33123;50.118;10.272;2022-11-11T00:00:15;99068.06;;;6.85;73.99
47374;BME280;33123;50.118;10.272;2022-11-11T00:02:42;99061.22;;;6.84;74.90
47374;BME280;33123;50.118;10.272;2022-11-11T00:05:08;99075.31;;;6.83;74.71
47374;BME280;33123;50.118;10.272;2022-11-11T00:07:35;99092.00;;;6.82;74.42
47374;BME280;33123;50.118;10.272;2022-11-11T00:10:04;98790.41;;;4.71;74.35
47374;BME280;33123;50.118;10.272;2022-11-11T00:12:31;98852.56;;;5.27;74.39
47374;BME280;33123;50.118;10.272;2022-11-11T00:14:57;99092.59;;;6.78;74.06
47374;BME280;33123;50.118;10.272;2022-11-11T00:17:24;99090.13;;;6.76;74.54
47374;BME280;33123;50.118;10.272;2022-11-11T00:20:09;99086.91;;;6.74;75.06
47374;BME280;33123;50.118;10.272;2022-11-11T00:22:54;98831.06;;;5.10;74.49
47374;BME280;33123;50.118;10.272;2022-11-11T00:25:39;98864.50;;;5.15;74.63
47374;BME280;33123;50.118;10.272;2022-11-11T00:28:06;98774.84;;;4.48;74.92
47374;BME280;33123;50.118;10.272;2022-11-11T00:30:32;98837.66;;;5.06;74.79
47374;BME280;33123;50.118;10.272;2022-11-11T00:32:59;98918.38;;;5.45;74.52
47374;BME280;33123;50.118;10.272;2022-11-11T00:35:25;98908.53;;;5.33;74.45
47374;BME280;33123;50.118;10.272;2022-11-11T00:38:11;98840.09;;;4.93;74.15
47374;BME280;33123;50.118;10.272;2022-11-11T00:41:01;98933.34;;;5.37;74.33
47374;BME280;33123;50.118;10.272;2022-11-11T00:43:27;98891.63;;;5.14;74.12
47374;BME280;33123;50.118;10.272;2022-11-11T00:45:54;99134.09;;;6.59;74.45
47374;BME280;33123;50.118;10.272;2022-11-11T00:48:41;99131.69;;;6.58;74.63
47374;BME280;33123;50.118;10.272;2022-11-11T00:51:26;98939.66;;;5.27;74.83
47374;BME280;33123;50.118;10.272;2022-11-11T00:53:52;98777.44;;;4.19;75.04
47374;BME280;33123;50.118;10.272;2022-11-11T00:56:20;99039.28;;;5.92;75.16
47374;BME280;33123;50.118;10.272;2022-11-11T00:58:47;99136.91;;;6.58;75.47
47374;BME280;33123;50.118;10.272;2022-11-11T01:01:14;98914.16;;;5.00;75.47
47374;BME280;33123;50.118;10.272;2022-11-11T01:03:41;98942.16;;;5.36;75.13
47374;BME280;33123;50.118;10.272;2022-11-11T01:06:09;98746.91;;;4.05;75.08
47374;BME280;33123;50.118;10.272;2022-11-11T01:08:36;98885.66;;;5.05;75.58
47374;BME280;33123;50.118;10.272;2022-11-11T01:11:03;98929.44;;;5.33;75.41
47374;BME280;33123;50.118;10.272;2022-11-11T01:13:32;98898.31;;;5.01;75.87
47374;BME280;33123;50.118;10.272;2022-11-11T01:16:00;99126.09;;;6.61;75.93
47374;BME280;33123;50.118;10.272;2022-11-11T01:18:27;99131.13;;;6.63;76.62
47374;BME280;33123;50.118;10.272;2022-11-11T01:20:58;99134.38;;;6.65;76.46
47374;BME280;33123;50.118;10.272;2022-11-11T01:23:25;99136.78;;;6.66;76.24
47374;BME280;33123;50.118;10.272;2022-11-11T01:25:52;99142.03;;;6.66;75.46
47374;BME280;33123;50.118;10.272;2022-11-11T01:28:18;98973.34;;;5.52;75.03
47374;BME280;33123;50.118;10.272;2022-11-11T01:30:46;98842.91;;;4.62;75.37
47374;BME280;33123;50.118;10.272;2022-11-11T01:33:13;98939.47;;;5.29;75.13
47374;BME280;33123;50.118;10.272;2022-11-11T01:35:40;99120.06;;;6.31;74.75
47374;BME280;33123;50.118;10.272;2022-11-11T01:38:07;98979.03;;;5.41;74.97
47374;BME280;33123;50.118;10.272;2022-11-11T01:40:40;99153.25;;;6.60;74.98
47374;BME280;33123;50.118;10.272;2022-11-11T01:43:18;98866.50;;;4.83;74.30
47374;BME280;33123;50.118;10.272;2022-11-11T01:45:53;98774.06;;;4.10;73.70
47374;BME280;33123;50.118;10.272;2022-11-11T01:48:26;98934.44;;;5.27;74.25
47374;BME280;33123;50.118;10.272;2022-11-11T01:51:18;98902.19;;;4.91;74.38
47374;BME280;33123;50.118;10.272;2022-11-11T01:53:48;99148.38;;;6.57;74.32
47374;BME280;33123;50.118;10.272;2022-11-11T01:56:17;98933.91;;;5.17;74.21
47374;BME280;33123;50.118;10.272;2022-11-11T01:58:45;98874.16;;;4.85;73.88
47374;BME280;33123;50.118;10.272;2022-11-11T02:01:13;99135.66;;;6.54;73.97
47374;BME280;33123;50.118;10.272;2022-11-11T02:03:40;99079.31;;;6.07;74.17
47374;BME280;33123;50.118;10.272;2022-11-11T02:06:28;98717.38;;;3.75;73.86
47374;BME280;33123;50.118;10.272;2022-11-11T02:08:54;99136.19;;;6.49;73.86
47374;BME280;33123;50.118;10.272;2022-11-11T02:11:22;99124.56;;;6.37;72.94
47374;BME280;33123;50.118;10.272;2022-11-11T02:14:08;98965.69;;;5.36;73.66
47374;BME280;33123;50.118;10.272;2022-11-11T02:16:54;98883.16;;;4.67;73.65
47374;BME280;33123;50.118;10.272;2022-11-11T02:19:31;99145.78;;;6.42;73.77
47374;BME280;33123;50.118;10.272;2022-11-11T02:22:01;98952.19;;;5.17;73.69
47374;BME280;33123;50.118;10.272;2022-11-11T02:24:31;99153.56;;;6.35;73.59
47374;BME280;33123;50.118;10.272;2022-11-11T02:26:58;99143.44;;;6.32;73.01
47374;BME280;33123;50.118;10.272;2022-11-11T02:29:26;99141.22;;;6.29;73.50
47374;BME280;33123;50.118;10.272;2022-11-11T02:31:53;99145.84;;;6.27;73.87
47374;BME280;33123;50.118;10.272;2022-11-11T02:34:27;99141.56;;;6.26;74.05
47374;BME280;33123;50.118;10.272;2022-11-11T02:36:54;99132.09;;;6.25;74.12
47374;BME280;33123;50.118;10.272;2022-11-11T02:39:21;99134.72;;;6.25;74.94
47374;BME280;33123;50.118;10.272;2022-11-11T02:41:50;98902.25;;;4.83;75.73
47374;BME280;33123;50.118;10.272;2022-11-11T02:44:23;99128.31;;;6.28;76.05
47374;BME280;33123;50.118;10.272;2022-11-11T02:46:49;98826.75;;;4.29;75.93
47374;BME280;33123;50.118;10.272;2022-11-11T02:49:16;98911.63;;;4.92;75.60
47374;BME280;33123;50.118;10.272;2022-11-11T02:51:42;98942.16;;;4.91;75.71
47374;BME280;33123;50.118;10.272;2022-11-11T02:54:09;99137.59;;;6.30;75.97
47374;BME280;33123;50.118;10.272;2022-11-11T02:56:36;99130.75;;;6.29;76.14
47374;BME280;33123;50.118;10.272;2022-11-11T02:59:21;98974.34;;;5.21;76.38
47374;BME280;33123;50.118;10.272;2022-11-11T03:01:48;98893.88;;;4.87;76.09
47374;BME280;33123;50.118;10.272;2022-11-11T03:04:14;98907.28;;;4.69;75.57
47374;BME280;33123;50.118;10.272;2022-11-11T03:06:41;98915.88;;;4.78;75.19
47374;BME280;33123;50.118;10.272;2022-11-11T03:09:08;98940.38;;;5.07;74.96
47374;BME280;33123;50.118;10.272;2022-11-11T03:11:34;98907.47;;;4.68;75.13
47374;BME280;33123;50.118;10.272;2022-11-11T03:14:03;98955.84;;;4.93;75.09
47374;BME280;33123;50.118;10.272;2022-11-11T03:16:31;98912.94;;;4.58;75.78
47374;BME280;33123;50.118;10.272;2022-11-11T03:19:15;98896.38;;;4.51;75.97
47374;BME280;33123;50.118;10.272;2022-11-11T03:21:41;99160.69;;;6.27;75.87
47374;BME280;33123;50.118;10.272;2022-11-11T03:24:08;98926.56;;;4.68;75.80
47374;BME280;33123;50.118;10.272;2022-11-11T03:26:35;99007.69;;;5.19;75.62
47374;BME280;33123;50.118;10.272;2022-11-11T03:29:01;99116.78;;;5.93;75.40
47374;BME280;33123;50.118;10.272;2022-11-11T03:31:27;98978.78;;;5.06;75.18
47374;BME280;33123;50.118;10.272;2022-11-11T03:33:56;98938.66;;;4.84;74.88
47374;BME280;33123;50.118;10.272;2022-11-11T03:36:42;99169.13;;;6.22;74.65
47374;BME280;33123;50.118;10.272;2022-11-11T03:39:26;99174.38;;;6.22;74.87
47374;BME280;33123;50.118;10.272;2022-11-11T03:41:53;98963.06;;;4.91;75.01
47374;BME280;33123;50.118;10.272;2022-11-11T03:44:20;98968.28;;;4.91;75.40
47374;BME280;33123;50.118;10.272;2022-11-11T03:46:46;98897.03;;;4.30;75.05
47374;BME280;33123;50.118;10.272;2022-11-11T03:49:14;98925.00;;;4.59;75.03
47374;BME280;33123;50.118;10.272;2022-11-11T03:51:41;99041.75;;;5.26;75.34
47374;BME280;33123;50.118;10.272;2022-11-11T03:54:07;99185.00;;;6.21;76.15
47374;BME280;33123;50.118;10.272;2022-11-11T03:56:34;99184.84;;;6.22;76.46
47374;BME280;33123;50.118;10.272;2022-11-11T03:59:00;99189.69;;;6.25;77.10
47374;BME280;33123;50.118;10.272;2022-11-11T04:01:27;98896.41;;;4.28;76.50
47374;BME280;33123;50.118;10.272;2022-11-11T04:04:11;99178.69;;;6.30;77.07
47374;BME280;33123;50.118;10.272;2022-11-11T04:06:57;99189.97;;;6.30;76.55
47374;BME280;33123;50.118;10.272;2022-11-11T04:09:41;99191.59;;;6.31;76.62
47374;BME280;33123;50.118;10.272;2022-11-11T04:12:25;98930.59;;;4.56;76.79
47374;BME280;33123;50.118;10.272;2022-11-11T04:14:52;98972.84;;;4.74;76.73
47374;BME280;33123;50.118;10.272;2022-11-11T04:17:36;99000.63;;;5.05;76.79
47374;BME280;33123;50.118;10.272;2022-11-11T04:20:03;99198.91;;;6.36;76.32
47374;BME280;33123;50.118;10.272;2022-11-11T04:22:48;99198.09;;;6.35;76.38
47374;BME280;33123;50.118;10.272;2022-11-11T04:25:18;98987.75;;;5.03;76.82
47374;BME280;33123;50.118;10.272;2022-11-11T04:28:01;99193.66;;;6.36;76.88
47374;BME280;33123;50.118;10.272;2022-11-11T04:30:45;99175.72;;;6.18;76.30
47374;BME280;33123;50.118;10.272;2022-11-11T04:33:12;98993.06;;;5.10;76.21
47374;BME280;33123;50.118;10.272;2022-11-11T04:35:38;99194.84;;;6.33;75.97
47374;BME280;33123;50.118;10.272;2022-11-11T04:38:07;98963.16;;;4.83;76.00
47374;BME280;33123;50.118;10.272;2022-11-11T04:40:51;99008.41;;;5.13;75.87
47374;BME280;33123;50.118;10.272;2022-11-11T04:43:30;99195.19;;;6.30;75.70
47374;BME280;33123;50.118;10.272;2022-11-11T04:45:57;99022.91;;;5.16;76.17
47374;BME280;33123;50.118;10.272;2022-11-11T04:48:23;98982.25;;;4.98;75.61
47374;BME280;33123;50.118;10.272;2022-11-11T04:50:49;99003.00;;;5.00;75.82
47374;BME280;33123;50.118;10.272;2022-11-11T04:53:18;99193.94;;;6.26;75.56
47374;BME280;33123;50.118;10.272;2022-11-11T04:55:44;99197.53;;;6.25;74.99
47374;BME280;33123;50.118;10.272;2022-11-11T04:58:30;99159.56;;;6.00;75.43
47374;BME280;33123;50.118;10.272;2022-11-11T05:00:57;99003.69;;;4.94;75.38
47374;BME280;33123;50.118;10.272;2022-11-11T05:03:24;99189.22;;;6.22;75.17
47374;BME280;33123;50.118;10.272;2022-11-11T05:05:51;98990.38;;;4.66;74.97
47374;BME280;33123;50.118;10.272;2022-11-11T05:08:38;99187.25;;;6.09;74.69
47374;BME280;33123;50.118;10.272;2022-11-11T05:11:26;99196.66;;;6.18;74.91
47374;BME280;33123;50.118;10.272;2022-11-11T05:13:54;98957.34;;;4.35;74.82
47374;BME280;33123;50.118;10.272;2022-11-11T05:16:42;98971.47;;;4.64;74.67
47374;BME280;33123;50.118;10.272;2022-11-11T05:19:27;99209.81;;;6.10;74.88
47374;BME280;33123;50.118;10.272;2022-11-11T05:22:27;99011.03;;;4.75;74.43
47374;BME280;33123;50.118;10.272;2022-11-11T05:24:57;99020.78;;;4.82;74.39
47374;BME280;33123;50.118;10.272;2022-11-11T05:27:41;98790.59;;;3.19;74.56
47374;BME280;33123;50.118;10.272;2022-11-11T05:30:09;99218.56;;;6.02;74.97
47374;BME280;33123;50.118;10.272;2022-11-11T05:32:36;98915.53;;;3.97;74.80
47374;BME280;33123;50.118;10.272;2022-11-11T05:35:03;99221.38;;;6.01;74.30
47374;BME280;33123;50.118;10.272;2022-11-11T05:37:30;99185.59;;;5.78;74.10
47374;BME280;33123;50.118;10.272;2022-11-11T05:39:58;99225.34;;;5.97;74.31
47374;BME280;33123;50.118;10.272;2022-11-11T05:42:24;98967.28;;;4.17;74.38
47374;BME280;33123;50.118;10.272;2022-11-11T05:44:51;98904.31;;;3.97;74.51
47374;BME280;33123;50.118;10.272;2022-11-11T05:47:18;99029.72;;;4.64;74.65
47374;BME280;33123;50.118;10.272;2022-11-11T05:49:44;99018.75;;;4.69;75.48
47374;BME280;33123;50.118;10.272;2022-11-11T05:52:12;99223.72;;;5.96;76.63
47374;BME280;33123;50.118;10.272;2022-11-11T05:54:40;99226.94;;;5.98;76.08
47374;BME280;33123;50.118;10.272;2022-11-11T05:57:08;99006.31;;;4.56;75.77
47374;BME280;33123;50.118;10.272;2022-11-11T05:59:35;98803.44;;;3.21;75.59
47374;BME280;33123;50.118;10.272;2022-11-11T06:02:10;98981.66;;;4.36;75.16
47374;BME280;33123;50.118;10.272;2022-11-11T06:04:37;99030.22;;;4.68;74.55
47374;BME280;33123;50.118;10.272;2022-11-11T06:07:04;99043.03;;;4.78;75.38
47374;BME280;33123;50.118;10.272;2022-11-11T06:09:30;99125.72;;;5.08;75.38
47374;BME280;33123;50.118;10.272;2022-11-11T06:11:57;99156.19;;;5.39;75.16
47374;BME280;33123;50.118;10.272;2022-11-11T06:14:25;99032.06;;;4.59;75.32
47374;BME280;33123;50.118;10.272;2022-11-11T06:16:51;99086.66;;;4.92;75.87
47374;BME280;33123;50.118;10.272;2022-11-11T06:19:18;98939.66;;;4.00;76.23
47374;BME280;33123;50.118;10.272;2022-11-11T06:21:44;99043.19;;;4.76;76.71
47374;BME280;33123;50.118;10.272;2022-11-11T06:24:23;99088.81;;;5.11;76.77
47374;BME280;33123;50.118;10.272;2022-11-11T06:26:49;98920.47;;;3.92;76.92
47374;BME280;33123;50.118;10.272;2022-11-11T06:29:15;99058.72;;;4.92;77.18
47374;BME280;33123;50.118;10.272;2022-11-11T06:31:43;99053.97;;;4.96;76.69
47374;BME280;33123;50.118;10.272;2022-11-11T06:34:10;99250.56;;;6.27;76.94
47374;BME280;33123;50.118;10.272;2022-11-11T06:36:37;98997.47;;;4.57;76.62
47374;BME280;33123;50.118;10.272;2022-11-11T06:39:03;98997.81;;;4.54;76.88
47374;BME280;33123;50.118;10.272;2022-11-11T06:41:30;99088.19;;;5.24;76.34
47374;BME280;33123;50.118;10.272;2022-11-11T06:43:57;99260.59;;;6.39;76.58
47374;BME280;33123;50.118;10.272;2022-11-11T06:46:24;99247.56;;;6.30;76.85
47374;BME280;33123;50.118;10.272;2022-11-11T06:48:52;99020.44;;;4.85;76.48
47374;BME280;33123;50.118;10.272;2022-11-11T06:51:19;99268.81;;;6.50;75.81
47374;BME280;33123;50.118;10.272;2022-11-11T06:53:45;99265.63;;;6.55;76.15
47374;BME280;33123;50.118;10.272;2022-11-11T06:56:12;99265.06;;;6.59;75.77
47374;BME280;33123;50.118;10.272;2022-11-11T06:58:39;99267.16;;;6.64;75.30
47374;BME280;33123;50.118;10.272;2022-11-11T07:01:07;99268.03;;;6.71;75.77
47374;BME280;33123;50.118;10.272;2022-11-11T07:03:34;99247.66;;;6.67;75.70
47374;BME280;33123;50.118;10.272;2022-11-11T07:06:03;99066.59;;;5.60;75.19
47374;BME280;33123;50.118;10.272;2022-11-11T07:08:31;99271.00;;;6.98;74.91
47374;BME280;33123;50.118;10.272;2022-11-11T07:10:58;99271.34;;;7.09;74.79
47374;BME280;33123;50.118;10.272;2022-11-11T07:13:24;99069.75;;;5.85;75.18
47374;BME280;33123;50.118;10.272;2022-11-11T07:15:51;99278.94;;;7.62;75.72
47374;BME280;33123;50.118;10.272;2022-11-11T07:18:17;99279.09;;;8.03;75.46
47374;BME280;33123;50.118;10.272;2022-11-11T07:20:44;99112.84;;;7.33;74.17
47374;BME280;33123;50.118;10.272;2022-11-11T07:23:12;99089.09;;;7.76;72.71
47374;BME280;33123;50.118;10.272;2022-11-11T07:25:39;99111.44;;;8.41;71.34
47374;BME280;33123;50.118;10.272;2022-11-11T07:28:05;99209.75;;;9.48;69.07
47374;BME280;33123;50.118;10.272;2022-11-11T07:30:32;99241.16;;;10.09;67.30
47374;BME280;33123;50.118;10.272;2022-11-11T07:32:58;99295.38;;;10.83;66.22
47374;BME280;33123;50.118;10.272;2022-11-11T07:35:25;99118.34;;;10.15;63.44
47374;BME280;33123;50.118;10.272;2022-11-11T07:37:51;99108.13;;;10.45;63.38
47374;BME280;33123;50.118;10.272;2022-11-11T07:40:19;99076.72;;;10.75;62.80
47374;BME280;33123;50.118;10.272;2022-11-11T07:42:46;99118.97;;;11.25;60.36
47374;BME280;33123;50.118;10.272;2022-11-11T07:45:13;99168.38;;;11.68;59.00
47374;BME280;33123;50.118;10.272;2022-11-11T07:47:43;99061.94;;;10.99;58.10
47374;BME280;33123;50.118;10.272;2022-11-11T07:50:10;99121.34;;;11.33;58.20
47374;BME280;33123;50.118;10.272;2022-11-11T07:52:37;99081.38;;;11.04;59.05
47374;BME280;33123;50.118;10.272;2022-11-11T07:55:04;99192.56;;;11.64;59.57
47374;BME280;33123;50.118;10.272;2022-11-11T07:57:32;98921.75;;;9.82;58.24
47374;BME280;33123;50.118;10.272;2022-11-11T07:59:58;99031.28;;;10.41;58.50
47374;BME280;33123;50.118;10.272;2022-11-11T08:02:25;99121.22;;;10.96;59.01
47374;BME280;33123;50.118;10.272;2022-11-11T08:04:51;99055.41;;;10.45;59.59
47374;BME280;33123;50.118;10.272;2022-11-11T08:07:18;99163.25;;;10.91;59.35
47374;BME280;33123;50.118;10.272;2022-11-11T08:09:45;99038.44;;;10.21;60.39
47374;BME280;33123;50.118;10.272;2022-11-11T08:12:12;98992.88;;;9.75;61.29
47374;BME280;33123;50.118;10.272;2022-11-11T08:14:57;99103.66;;;10.45;61.75
47374;BME280;33123;50.118;10.272;2022-11-11T08:17:24;99144.88;;;10.78;61.85
47374;BME280;33123;50.118;10.272;2022-11-11T08:19:50;98931.88;;;9.40;61.78
47374;BME280;33123;50.118;10.272;2022-11-11T08:22:17;99310.50;;;11.84;61.66
47374;BME280;33123;50.118;10.272;2022-11-11T08:24:43;99311.72;;;11.81;62.34
47374;BME280;33123;50.118;10.272;2022-11-11T08:27:10;99315.19;;;11.82;61.82
47374;BME280;33123;50.118;10.272;2022-11-11T08:29:37;99125.88;;;10.63;62.15
47374;BME280;33123;50.118;10.272;2022-11-11T08:32:05;99110.13;;;10.49;62.42
47374;BME280;33123;50.118;10.272;2022-11-11T08:34:31;99135.06;;;10.85;63.25
47374;BME280;33123;50.118;10.272;2022-11-11T08:36:58;99189.47;;;11.49;64.24
47374;BME280;33123;50.118;10.272;2022-11-11T08:39:24;98912.66;;;10.10;63.69
47374;BME280;33123;50.118;10.272;2022-11-11T08:41:51;99141.31;;;11.97;62.67
47374;BME280;33123;50.118;10.272;2022-11-11T08:44:18;99116.34;;;12.11;61.19
47374;BME280;33123;50.118;10.272;2022-11-11T08:46:44;99143.94;;;12.52;61.62
47374;BME280;33123;50.118;10.272;2022-11-11T08:49:12;99316.19;;;14.01;62.08
47374;BME280;33123;50.118;10.272;2022-11-11T08:51:39;99321.88;;;14.40;60.34
47374;BME280;33123;50.118;10.272;2022-11-11T08:54:06;98997.31;;;12.48;58.85
47374;BME280;33123;50.118;10.272;2022-11-11T08:56:33;98889.34;;;12.22;56.54
47374;BME280;33123;50.118;10.272;2022-11-11T08:59:00;99257.63;;;14.73;57.10
47374;BME280;33123;50.118;10.272;2022-11-11T09:01:27;99317.84;;;15.24;56.33
47374;BME280;33123;50.118;10.272;2022-11-11T09:03:53;99328.13;;;15.32;56.58
47374;BME280;33123;50.118;10.272;2022-11-11T09:06:21;99300.56;;;15.10;55.37
47374;BME280;33123;50.118;10.272;2022-11-11T09:08:48;99330.09;;;15.25;55.39
47374;BME280;33123;50.118;10.272;2022-11-11T09:11:14;99323.44;;;15.11;55.44
47374;BME280;33123;50.118;10.272;2022-11-11T09:13:41;99325.78;;;14.96;54.78
47374;BME280;33123;50.118;10.272;2022-11-11T09:16:08;99306.19;;;14.73;54.93
47374;BME280;33123;50.118;10.272;2022-11-11T09:18:34;99318.31;;;14.69;54.92
47374;BME280;33123;50.118;10.272;2022-11-11T09:21:04;99317.06;;;14.72;56.33
47374;BME280;33123;50.118;10.272;2022-11-11T09:23:32;99326.50;;;14.79;56.07
47374;BME280;33123;50.118;10.272;2022-11-11T09:25:59;99326.94;;;15.00;56.33
47374;BME280;33123;50.118;10.272;2022-11-11T09:28:28;99319.69;;;15.24;56.54
47374;BME280;33123;50.118;10.272;2022-11-11T09:30:57;99332.50;;;15.67;55.21
47374;BME280;33123;50.118;10.272;2022-11-11T09:33:24;99331.03;;;16.05;54.86
47374;BME280;33123;50.118;10.272;2022-11-11T09:35:50;99329.78;;;16.46;54.92
47374;BME280;33123;50.118;10.272;2022-11-11T09:38:17;99340.03;;;16.93;53.20
47374;BME280;33123;50.118;10.272;2022-11-11T09:41:02;99336.63;;;17.41;52.21
47374;BME280;33123;50.118;10.272;2022-11-11T09:43:39;99338.63;;;17.78;51.56
47374;BME280;33123;50.118;10.272;2022-11-11T09:46:23;99339.50;;;18.16;50.20
47374;BME280;33123;50.118;10.272;2022-11-11T09:52:00;99326.44;;;19.09;48.10
47374;BME280;33123;50.118;10.272;2022-11-11T09:54:33;99334.63;;;19.55;47.66
47374;BME280;33123;50.118;10.272;2022-11-11T09:57:12;99329.84;;;19.98;45.48
47374;BME280;33123;50.118;10.272;2022-11-11T09:59:44;99296.44;;;20.11;44.31
47374;BME280;33123;50.118;10.272;2022-11-11T10:02:19;99326.38;;;20.53;43.05
47374;BME280;33123;50.118;10.272;2022-11-11T10:04:55;99330.41;;;20.10;43.49
47374;BME280;33123;50.118;10.272;2022-11-11T10:07:27;99324.50;;;20.18;44.86
47374;BME280;33123;50.118;10.272;2022-11-11T10:10:05;99330.09;;;20.42;46.11
47374;BME280;33123;50.118;10.272;2022-11-11T10:12:40;99331.94;;;20.88;43.62
47374;BME280;33123;50.118;10.272;2022-11-11T10:15:11;99326.94;;;21.30;41.69
47374;BME280;33123;50.118;10.272;2022-11-11T10:17:49;99331.47;;;21.35;41.49
47374;BME280;33123;50.118;10.272;2022-11-11T10:20:21;99330.97;;;21.33;41.09
47374;BME280;33123;50.118;10.272;2022-11-11T10:22:50;99344.91;;;21.30;41.17
47374;BME280;33123;50.118;10.272;2022-11-11T10:25:21;99341.00;;;20.97;41.47
47374;BME280;33123;50.118;10.272;2022-11-11T10:27:53;99348.31;;;21.46;42.15
47374;BME280;33123;50.118;10.272;2022-11-11T10:30:23;99342.84;;;21.01;41.33
47374;BME280;33123;50.118;10.272;2022-11-11T10:32:53;99344.84;;;21.40;41.82
47374;BME280;33123;50.118;10.272;2022-11-11T10:35:24;99343.72;;;21.51;40.49
47374;BME280;33123;50.118;10.272;2022-11-11T10:38:00;99356.13;;;21.81;40.45
47374;BME280;33123;50.118;10.272;2022-11-11T10:40:36;99353.00;;;21.69;40.11
47374;BME280;33123;50.118;10.272;2022-11-11T10:43:12;99350.78;;;21.81;40.42
47374;BME280;33123;50.118;10.272;2022-11-11T10:45:48;99358.34;;;21.15;40.50
47374;BME280;33123;50.118;10.272;2022-11-11T10:48:20;99356.38;;;20.66;41.41
47374;BME280;33123;50.118;10.272;2022-11-11T10:50:52;99339.78;;;20.23;41.96
47374;BME280;33123;50.118;10.272;2022-11-11T10:53:25;99351.53;;;20.42;44.14
47374;BME280;33123;50.118;10.272;2022-11-11T10:56:00;99345.94;;;20.18;42.54
47374;BME280;33123;50.118;10.272;2022-11-11T10:58:33;99332.81;;;20.07;42.87
47374;BME280;33123;50.118;10.272;2022-11-11T11:01:06;99347.28;;;20.16;42.83
47374;BME280;33123;50.118;10.272;2022-11-11T11:03:35;99349.94;;;20.21;44.01
47374;BME280;33123;50.118;10.272;2022-11-11T11:06:09;99351.00;;;20.25;43.21
47374;BME280;33123;50.118;10.272;2022-11-11T11:08:40;99349.94;;;20.21;43.63
47374;BME280;33123;50.118;10.272;2022-11-11T11:11:14;99353.16;;;20.33;43.75
47374;BME280;33123;50.118;10.272;2022-11-11T11:13:45;99356.88;;;20.42;43.52
47374;BME280;33123;50.118;10.272;2022-11-11T11:16:17;99349.94;;;20.21;42.36
47374;BME280;33123;50.118;10.272;2022-11-11T11:19:18;99342.19;;;20.19;44.13
47374;BME280;33123;50.118;10.272;2022-11-11T11:21:50;99339.72;;;19.62;43.32
47374;BME280;33123;50.118;10.272;2022-11-11T11:24:23;99351.38;;;19.30;44.77
47374;BME280;33123;50.118;10.272;2022-11-11T11:26:51;99347.53;;;19.01;45.56
47374;BME280;33123;50.118;10.272;2022-11-11T11:29:28;99347.38;;;18.75;45.97
47374;BME280;33123;50.118;10.272;2022-11-11T11:32:10;99352.91;;;18.63;47.66
47374;BME280;33123;50.118;10.272;2022-11-11T11:34:45;99348.94;;;18.71;47.83
47374;BME280;33123;50.118;10.272;2022-11-11T11:37:12;99361.56;;;18.81;47.06
47374;BME280;33123;50.118;10.272;2022-11-11T11:39:39;99356.31;;;18.96;47.08
47374;BME280;33123;50.118;10.272;2022-11-11T11:45:29;99342.59;;;19.40;46.30
47374;BME280;33123;50.118;10.272;2022-11-11T11:48:08;99339.72;;;19.62;45.51
47374;BME280;33123;50.118;10.272;2022-11-11T11:50:42;99322.63;;;19.68;45.53
47374;BME280;33123;50.118;10.272;2022-11-11T11:53:28;99336.56;;;19.95;45.88
47374;BME280;33123;50.118;10.272;2022-11-11T11:56:03;99329.88;;;20.08;46.51
47374;BME280;33123;50.118;10.272;2022-11-11T11:58:38;99333.34;;;20.24;45.57
47374;BME280;33123;50.118;10.272;2022-11-11T12:01:13;99329.56;;;20.45;44.85
47374;BME280;33123;50.118;10.272;2022-11-11T12:06:47;99319.03;;;20.90;44.74
47374;BME280;33123;50.118;10.272;2022-11-11T12:09:23;99315.75;;;21.08;43.75
47374;BME280;33123;50.118;10.272;2022-11-11T12:12:00;99310.03;;;21.25;43.39
47374;BME280;33123;50.118;10.272;2022-11-11T12:14:44;99309.44;;;21.43;41.94
47374;BME280;33123;50.118;10.272;2022-11-11T12:17:27;99302.38;;;21.57;41.54
47374;BME280;33123;50.118;10.272;2022-11-11T12:20:03;99303.41;;;21.61;41.29
47374;BME280;33123;50.118;10.272;2022-11-11T12:22:46;99298.19;;;21.41;41.18
47374;BME280;33123;50.118;10.272;2022-11-11T12:25:18;99292.47;;;21.53;42.06
47374;BME280;33123;50.118;10.272;2022-11-11T12:27:55;99287.13;;;21.48;40.95
47374;BME280;33123;50.118;10.272;2022-11-11T12:30:24;99289.34;;;21.35;41.36
47374;BME280;33123;50.118;10.272;2022-11-11T12:33:16;99280.25;;;21.31;41.49
47374;BME280;33123;50.118;10.272;2022-11-11T12:35:56;99283.50;;;21.23;42.18
47374;BME280;33123;50.118;10.272;2022-11-11T12:38:38;99284.75;;;20.81;42.60
47374;BME280;33123;50.118;10.272;2022-11-11T12:41:21;99286.72;;;20.66;43.44
47374;BME280;33123;50.118;10.272;2022-11-11T12:43:56;99276.03;;;20.25;43.21
47374;BME280;33123;50.118;10.272;2022-11-11T12:46:32;99275.00;;;19.95;44.09
47374;BME280;33123;50.118;10.272;2022-11-11T12:49:20;99274.69;;;19.56;44.69
47374;BME280;33123;50.118;10.272;2022-11-11T12:51:55;99274.38;;;19.22;45.17
47374;BME280;33123;50.118;10.272;2022-11-11T12:54:33;99265.16;;;18.87;45.95
47374;BME280;33123;50.118;10.272;2022-11-11T12:57:11;99267.31;;;18.43;46.77
47374;BME280;33123;50.118;10.272;2022-11-11T12:59:57;99278.53;;;18.03;47.75
47374;BME280;33123;50.118;10.272;2022-11-11T13:03:05;99277.16;;;17.68;48.38
47374;BME280;33123;50.118;10.272;2022-11-11T13:05:41;99280.09;;;17.39;48.83
47374;BME280;33123;50.118;10.272;2022-11-11T13:08:38;99275.66;;;17.23;49.65
47374;BME280;33123;50.118;10.272;2022-11-11T13:11:13;99278.97;;;17.08;51.10
47374;BME280;33123;50.118;10.272;2022-11-11T13:13:52;99276.13;;;16.93;50.66
47374;BME280;33123;50.118;10.272;2022-11-11T13:16:22;99273.41;;;16.88;50.82
47374;BME280;33123;50.118;10.272;2022-11-11T13:18:54;99273.91;;;16.85;51.81
47374;BME280;33123;50.118;10.272;2022-11-11T13:21:30;99281.63;;;16.86;52.14
47374;BME280;33123;50.118;10.272;2022-11-11T13:23:58;99275.16;;;16.77;51.89
47374;BME280;33123;50.118;10.272;2022-11-11T13:26:28;99282.81;;;16.74;51.99